sensor_id;sensor_type;location;lat;lon;timestamp;P1;durP1;ratioP1;P2;durP2;ratioP2
34585;SDS011;20816;50.950;11.108;2022-07-01T00:01:44;4.85;;;1.88;;
34585;SDS011;20816;50.950;11.108;2022-07-01T00:04:12;2.20;;;1.75;;
34585;SDS011;20816;50.950;11.108;2022-07-01T00:06:38;2.67;;;1.75;;
34585;SDS011;20816;50.950;11.108;2022-07-01T00:09:05;3.08;;;2.00;;
34585;SDS011;20816;50.950;11.108;2022-07-01T00:11:31;2.10;;;1.90;;
34585;SDS011;20816;50.950;11.108;2022-07-01T00:13:58;2.60;;;1.80;;
34585;SDS011;20816;50.950;11.108;2022-07-01T00:16:25;2.50;;;2.30;;
34585;SDS011;20816;50.950;11.108;2022-07-01T00:18:52;4.80;;;2.58;;
34585;SDS011;20816;50.950;11.108;2022-07-01T00:21:18;4.78;;;2.13;;
34585;SDS011;20816;50.950;11.108;2022-07-01T00:23:45;4.72;;;2.53;;
34585;SDS011;20816;50.950;11.108;2022-07-01T00:26:12;2.03;;;1.83;;
34585;SDS011;20816;50.950;11.108;2022-07-01T00:28:38;5.57;;;2.28;;
34585;SDS011;20816;50.950;11.108;2022-07-01T00:31:05;5.13;;;2.75;;
34585;SDS011;20816;50.950;11.108;2022-07-01T00:33:31;4.78;;;2.67;;
34585;SDS011;20816;50.950;11.108;2022-07-01T00:35:58;6.68;;;2.88;;
34585;SDS011;20816;50.950;11.108;2022-07-01T00:38:25;2.58;;;2.35;;
34585;SDS011;20816;50.950;11.108;2022-07-01T00:40:52;3.13;;;2.50;;
34585;SDS011;20816;50.950;11.108;2022-07-01T00:43:20;2.90;;;2.15;;
34585;SDS011;20816;50.950;11.108;2022-07-01T00:46:09;4.72;;;2.90;;
34585;SDS011;20816;50.950;11.108;2022-07-01T00:48:36;4.95;;;2.60;;
34585;SDS011;20816;50.950;11.108;2022-07-01T00:51:03;3.35;;;2.58;;
34585;SDS011;20816;50.950;11.108;2022-07-01T00:53:30;2.92;;;2.65;;
34585;SDS011;20816;50.950;11.108;2022-07-01T00:55:57;2.92;;;2.42;;
34585;SDS011;20816;50.950;11.108;2022-07-01T00:58:28;3.88;;;2.20;;
34585;SDS011;20816;50.950;11.108;2022-07-01T01:00:57;3.08;;;2.67;;
34585;SDS011;20816;50.950;11.108;2022-07-01T01:03:25;2.92;;;2.38;;
34585;SDS011;20816;50.950;11.108;2022-07-01T01:05:53;3.13;;;2.58;;
34585;SDS011;20816;50.950;11.108;2022-07-01T01:08:23;2.88;;;2.28;;
34585;SDS011;20816;50.950;11.108;2022-07-01T01:10:52;5.00;;;3.38;;
34585;SDS011;20816;50.950;11.108;2022-07-01T01:13:19;3.65;;;3.10;;
34585;SDS011;20816;50.950;11.108;2022-07-01T01:15:46;4.13;;;2.40;;
34585;SDS011;20816;50.950;11.108;2022-07-01T01:18:13;2.72;;;2.33;;
34585;SDS011;20816;50.950;11.108;2022-07-01T01:20:39;3.00;;;2.42;;
34585;SDS011;20816;50.950;11.108;2022-07-01T01:23:06;3.30;;;2.72;;
34585;SDS011;20816;50.950;11.108;2022-07-01T01:25:34;3.10;;;2.80;;
34585;SDS011;20816;50.950;11.108;2022-07-01T01:28:01;3.25;;;2.85;;
34585;SDS011;20816;50.950;11.108;2022-07-01T01:30:28;4.20;;;2.65;;
34585;SDS011;20816;50.950;11.108;2022-07-01T01:32:55;9.95;;;3.05;;
34585;SDS011;20816;50.950;11.108;2022-07-01T01:35:21;3.22;;;2.70;;
34585;SDS011;20816;50.950;11.108;2022-07-01T01:37:48;4.28;;;3.10;;
34585;SDS011;20816;50.950;11.108;2022-07-01T01:40:15;3.25;;;2.95;;
34585;SDS011;20816;50.950;11.108;2022-07-01T01:42:43;5.05;;;3.42;;
34585;SDS011;20816;50.950;11.108;2022-07-01T01:45:10;4.60;;;2.63;;
34585;SDS011;20816;50.950;11.108;2022-07-01T01:47:38;3.55;;;3.25;;
34585;SDS011;20816;50.950;11.108;2022-07-01T01:50:06;6.05;;;3.22;;
34585;SDS011;20816;50.950;11.108;2022-07-01T01:52:34;4.43;;;3.45;;
34585;SDS011;20816;50.950;11.108;2022-07-01T01:55:00;3.22;;;2.92;;
34585;SDS011;20816;50.950;11.108;2022-07-01T01:57:27;3.55;;;2.70;;
34585;SDS011;20816;50.950;11.108;2022-07-01T01:59:54;3.33;;;3.03;;
34585;SDS011;20816;50.950;11.108;2022-07-01T02:02:20;5.55;;;3.35;;
34585;SDS011;20816;50.950;11.108;2022-07-01T02:04:48;8.55;;;3.90;;
34585;SDS011;20816;50.950;11.108;2022-07-01T02:07:15;3.78;;;3.15;;
34585;SDS011;20816;50.950;11.108;2022-07-01T02:09:43;4.38;;;3.17;;
34585;SDS011;20816;50.950;11.108;2022-07-01T02:12:10;6.15;;;3.78;;
34585;SDS011;20816;50.950;11.108;2022-07-01T02:14:36;4.93;;;2.92;;
34585;SDS011;20816;50.950;11.108;2022-07-01T02:17:04;4.05;;;3.35;;
34585;SDS011;20816;50.950;11.108;2022-07-01T02:19:30;4.35;;;3.80;;
34585;SDS011;20816;50.950;11.108;2022-07-01T02:21:57;3.80;;;3.50;;
34585;SDS011;20816;50.950;11.108;2022-07-01T02:24:23;3.80;;;3.40;;
34585;SDS011;20816;50.950;11.108;2022-07-01T02:26:50;7.68;;;3.92;;
34585;SDS011;20816;50.950;11.108;2022-07-01T02:29:17;3.90;;;3.47;;
34585;SDS011;20816;50.950;11.108;2022-07-01T02:31:43;3.70;;;3.35;;
34585;SDS011;20816;50.950;11.108;2022-07-01T02:34:10;4.78;;;3.83;;
34585;SDS011;20816;50.950;11.108;2022-07-01T02:36:36;4.07;;;3.58;;
34585;SDS011;20816;50.950;11.108;2022-07-01T02:39:03;5.28;;;3.72;;
34585;SDS011;20816;50.950;11.108;2022-07-01T02:41:30;4.40;;;4.00;;
34585;SDS011;20816;50.950;11.108;2022-07-01T02:43:56;5.60;;;4.20;;
34585;SDS011;20816;50.950;11.108;2022-07-01T02:46:23;5.53;;;4.35;;
34585;SDS011;20816;50.950;11.108;2022-07-01T02:48:50;7.38;;;4.50;;
34585;SDS011;20816;50.950;11.108;2022-07-01T02:51:17;6.13;;;4.28;;
34585;SDS011;20816;50.950;11.108;2022-07-01T02:53:43;8.95;;;4.88;;
34585;SDS011;20816;50.950;11.108;2022-07-01T02:56:10;7.30;;;4.70;;
34585;SDS011;20816;50.950;11.108;2022-07-01T02:58:37;5.40;;;4.47;;
34585;SDS011;20816;50.950;11.108;2022-07-01T03:01:04;5.32;;;4.65;;
34585;SDS011;20816;50.950;11.108;2022-07-01T03:03:30;6.57;;;5.50;;
34585;SDS011;20816;50.950;11.108;2022-07-01T03:05:57;5.40;;;4.90;;
34585;SDS011;20816;50.950;11.108;2022-07-01T03:08:24;5.80;;;4.82;;
34585;SDS011;20816;50.950;11.108;2022-07-01T03:10:50;8.20;;;4.70;;
34585;SDS011;20816;50.950;11.108;2022-07-01T03:13:17;5.97;;;4.60;;
34585;SDS011;20816;50.950;11.108;2022-07-01T03:15:45;5.03;;;4.50;;
34585;SDS011;20816;50.950;11.108;2022-07-01T03:18:12;5.90;;;5.28;;
34585;SDS011;20816;50.950;11.108;2022-07-01T03:20:39;8.40;;;5.55;;
34585;SDS011;20816;50.950;11.108;2022-07-01T03:23:05;7.20;;;4.90;;
34585;SDS011;20816;50.950;11.108;2022-07-01T03:25:32;5.97;;;4.78;;
34585;SDS011;20816;50.950;11.108;2022-07-01T03:27:59;9.07;;;6.20;;
34585;SDS011;20816;50.950;11.108;2022-07-01T03:30:29;6.70;;;5.95;;
34585;SDS011;20816;50.950;11.108;2022-07-01T03:32:56;8.77;;;6.22;;
34585;SDS011;20816;50.950;11.108;2022-07-01T03:35:22;10.77;;;6.13;;
34585;SDS011;20816;50.950;11.108;2022-07-01T03:38:01;7.60;;;5.28;;
34585;SDS011;20816;50.950;11.108;2022-07-01T03:40:30;8.13;;;4.95;;
34585;SDS011;20816;50.950;11.108;2022-07-01T03:43:00;10.02;;;5.70;;
34585;SDS011;20816;50.950;11.108;2022-07-01T03:45:27;8.85;;;5.88;;
34585;SDS011;20816;50.950;11.108;2022-07-01T03:47:53;6.43;;;5.43;;
34585;SDS011;20816;50.950;11.108;2022-07-01T03:50:21;6.75;;;5.70;;
34585;SDS011;20816;50.950;11.108;2022-07-01T03:52:48;7.05;;;5.65;;
34585;SDS011;20816;50.950;11.108;2022-07-01T03:55:15;8.00;;;5.65;;
34585;SDS011;20816;50.950;11.108;2022-07-01T03:57:43;5.95;;;5.32;;
34585;SDS011;20816;50.950;11.108;2022-07-01T04:00:10;6.28;;;5.03;;
34585;SDS011;20816;50.950;11.108;2022-07-01T04:02:44;10.43;;;5.35;;
34585;SDS011;20816;50.950;11.108;2022-07-01T04:05:11;6.28;;;5.47;;
34585;SDS011;20816;50.950;11.108;2022-07-01T04:07:38;7.88;;;5.15;;
34585;SDS011;20816;50.950;11.108;2022-07-01T04:10:05;8.50;;;5.18;;
34585;SDS011;20816;50.950;11.108;2022-07-01T04:12:31;9.15;;;5.22;;
34585;SDS011;20816;50.950;11.108;2022-07-01T04:14:58;6.72;;;4.20;;
34585;SDS011;20816;50.950;11.108;2022-07-01T04:17:25;10.65;;;4.93;;
34585;SDS011;20816;50.950;11.108;2022-07-01T04:19:51;6.28;;;4.03;;
34585;SDS011;20816;50.950;11.108;2022-07-01T04:22:18;6.10;;;4.45;;
34585;SDS011;20816;50.950;11.108;2022-07-01T04:24:59;4.93;;;4.43;;
34585;SDS011;20816;50.950;11.108;2022-07-01T04:27:27;4.70;;;3.75;;
34585;SDS011;20816;50.950;11.108;2022-07-01T04:29:53;5.13;;;4.20;;
34585;SDS011;20816;50.950;11.108;2022-07-01T04:32:20;5.15;;;4.35;;
34585;SDS011;20816;50.950;11.108;2022-07-01T04:34:47;4.22;;;3.70;;
34585;SDS011;20816;50.950;11.108;2022-07-01T04:37:13;5.53;;;4.18;;
34585;SDS011;20816;50.950;11.108;2022-07-01T04:39:40;5.55;;;3.90;;
34585;SDS011;20816;50.950;11.108;2022-07-01T04:42:07;3.92;;;3.28;;
34585;SDS011;20816;50.950;11.108;2022-07-01T04:44:35;3.25;;;2.95;;
34585;SDS011;20816;50.950;11.108;2022-07-01T04:47:09;4.00;;;3.30;;
34585;SDS011;20816;50.950;11.108;2022-07-01T04:49:36;3.78;;;3.08;;
34585;SDS011;20816;50.950;11.108;2022-07-01T04:52:03;3.30;;;2.95;;
34585;SDS011;20816;50.950;11.108;2022-07-01T04:54:29;4.60;;;3.10;;
34585;SDS011;20816;50.950;11.108;2022-07-01T04:56:56;4.03;;;3.60;;
34585;SDS011;20816;50.950;11.108;2022-07-01T04:59:23;3.95;;;3.05;;
34585;SDS011;20816;50.950;11.108;2022-07-01T05:01:50;2.88;;;2.58;;
34585;SDS011;20816;50.950;11.108;2022-07-01T05:04:17;7.80;;;3.80;;
34585;SDS011;20816;50.950;11.108;2022-07-01T05:06:44;3.20;;;2.67;;
34585;SDS011;20816;50.950;11.108;2022-07-01T05:09:12;2.10;;;1.90;;
34585;SDS011;20816;50.950;11.108;2022-07-01T05:11:39;2.10;;;1.63;;
34585;SDS011;20816;50.950;11.108;2022-07-01T05:14:06;2.92;;;2.10;;
34585;SDS011;20816;50.950;11.108;2022-07-01T05:16:34;2.53;;;1.88;;
34585;SDS011;20816;50.950;11.108;2022-07-01T05:19:01;2.13;;;1.80;;
34585;SDS011;20816;50.950;11.108;2022-07-01T05:21:47;4.18;;;2.28;;
34585;SDS011;20816;50.950;11.108;2022-07-01T05:24:23;3.40;;;2.78;;
34585;SDS011;20816;50.950;11.108;2022-07-01T05:26:51;3.35;;;2.50;;
34585;SDS011;20816;50.950;11.108;2022-07-01T05:29:18;2.83;;;2.40;;
34585;SDS011;20816;50.950;11.108;2022-07-01T05:31:45;4.28;;;2.53;;
34585;SDS011;20816;50.950;11.108;2022-07-01T05:34:12;3.50;;;2.75;;
34585;SDS011;20816;50.950;11.108;2022-07-01T05:36:38;2.92;;;2.35;;
34585;SDS011;20816;50.950;11.108;2022-07-01T05:39:05;4.00;;;2.58;;
34585;SDS011;20816;50.950;11.108;2022-07-01T05:41:32;15.82;;;3.60;;
34585;SDS011;20816;50.950;11.108;2022-07-01T05:44:00;2.58;;;2.22;;
34585;SDS011;20816;50.950;11.108;2022-07-01T05:46:27;3.58;;;2.35;;
34585;SDS011;20816;50.950;11.108;2022-07-01T05:48:54;2.28;;;2.08;;
34585;SDS011;20816;50.950;11.108;2022-07-01T05:51:21;2.85;;;2.42;;
34585;SDS011;20816;50.950;11.108;2022-07-01T05:53:47;2.63;;;1.60;;
34585;SDS011;20816;50.950;11.108;2022-07-01T05:56:14;2.35;;;1.83;;
34585;SDS011;20816;50.950;11.108;2022-07-01T05:58:41;2.38;;;2.10;;
34585;SDS011;20816;50.950;11.108;2022-07-01T06:01:08;2.55;;;2.20;;
34585;SDS011;20816;50.950;11.108;2022-07-01T06:03:35;2.92;;;2.42;;
34585;SDS011;20816;50.950;11.108;2022-07-01T06:06:02;2.35;;;1.77;;
34585;SDS011;20816;50.950;11.108;2022-07-01T06:08:29;2.33;;;1.50;;
34585;SDS011;20816;50.950;11.108;2022-07-01T06:10:56;2.40;;;1.73;;
34585;SDS011;20816;50.950;11.108;2022-07-01T06:13:23;2.15;;;1.92;;
34585;SDS011;20816;50.950;11.108;2022-07-01T06:15:49;3.00;;;1.73;;
34585;SDS011;20816;50.950;11.108;2022-07-01T06:18:17;4.07;;;2.22;;
34585;SDS011;20816;50.950;11.108;2022-07-01T06:20:43;2.80;;;2.15;;
34585;SDS011;20816;50.950;11.108;2022-07-01T06:23:10;2.08;;;1.92;;
34585;SDS011;20816;50.950;11.108;2022-07-01T06:25:37;2.97;;;2.50;;
34585;SDS011;20816;50.950;11.108;2022-07-01T06:28:04;3.72;;;2.15;;
34585;SDS011;20816;50.950;11.108;2022-07-01T06:30:30;3.58;;;2.60;;
34585;SDS011;20816;50.950;11.108;2022-07-01T06:32:57;3.63;;;2.50;;
34585;SDS011;20816;50.950;11.108;2022-07-01T06:35:24;2.78;;;2.53;;
34585;SDS011;20816;50.950;11.108;2022-07-01T06:37:51;4.90;;;2.90;;
34585;SDS011;20816;50.950;11.108;2022-07-01T06:40:23;5.00;;;3.17;;
34585;SDS011;20816;50.950;11.108;2022-07-01T06:42:50;4.05;;;3.15;;
34585;SDS011;20816;50.950;11.108;2022-07-01T06:45:17;5.22;;;3.33;;
34585;SDS011;20816;50.950;11.108;2022-07-01T06:47:44;8.40;;;2.97;;
34585;SDS011;20816;50.950;11.108;2022-07-01T06:50:10;6.88;;;3.90;;
34585;SDS011;20816;50.950;11.108;2022-07-01T06:52:37;5.50;;;3.65;;
34585;SDS011;20816;50.950;11.108;2022-07-01T06:55:04;3.90;;;3.38;;
34585;SDS011;20816;50.950;11.108;2022-07-01T06:57:31;9.90;;;3.72;;
34585;SDS011;20816;50.950;11.108;2022-07-01T06:59:57;4.20;;;3.40;;
34585;SDS011;20816;50.950;11.108;2022-07-01T07:02:24;4.75;;;3.28;;
34585;SDS011;20816;50.950;11.108;2022-07-01T07:04:54;6.57;;;2.83;;
34585;SDS011;20816;50.950;11.108;2022-07-01T07:07:27;4.72;;;3.58;;
34585;SDS011;20816;50.950;11.108;2022-07-01T07:09:54;4.45;;;3.53;;
34585;SDS011;20816;50.950;11.108;2022-07-01T07:12:23;6.40;;;3.00;;
34585;SDS011;20816;50.950;11.108;2022-07-01T07:14:50;3.42;;;2.72;;
34585;SDS011;20816;50.950;11.108;2022-07-01T07:17:17;3.95;;;3.22;;
34585;SDS011;20816;50.950;11.108;2022-07-01T07:19:45;5.18;;;3.30;;
34585;SDS011;20816;50.950;11.108;2022-07-01T07:22:12;3.60;;;3.15;;
34585;SDS011;20816;50.950;11.108;2022-07-01T07:24:39;4.70;;;3.47;;
34585;SDS011;20816;50.950;11.108;2022-07-01T07:27:06;4.63;;;3.13;;
34585;SDS011;20816;50.950;11.108;2022-07-01T07:29:33;6.10;;;3.70;;
34585;SDS011;20816;50.950;11.108;2022-07-01T07:32:00;4.05;;;3.65;;
34585;SDS011;20816;50.950;11.108;2022-07-01T07:34:26;4.65;;;3.97;;
34585;SDS011;20816;50.950;11.108;2022-07-01T07:36:53;6.10;;;3.53;;
34585;SDS011;20816;50.950;11.108;2022-07-01T07:39:20;3.90;;;3.42;;
34585;SDS011;20816;50.950;11.108;2022-07-01T07:41:47;4.45;;;3.45;;
34585;SDS011;20816;50.950;11.108;2022-07-01T07:44:16;5.60;;;4.10;;
34585;SDS011;20816;50.950;11.108;2022-07-01T07:46:43;4.93;;;4.20;;
34585;SDS011;20816;50.950;11.108;2022-07-01T07:49:10;5.63;;;3.72;;
34585;SDS011;20816;50.950;11.108;2022-07-01T07:51:36;6.00;;;4.20;;
34585;SDS011;20816;50.950;11.108;2022-07-01T07:54:03;6.18;;;4.28;;
34585;SDS011;20816;50.950;11.108;2022-07-01T07:56:30;4.88;;;3.10;;
34585;SDS011;20816;50.950;11.108;2022-07-01T07:58:57;4.07;;;3.30;;
34585;SDS011;20816;50.950;11.108;2022-07-01T08:01:25;4.32;;;3.45;;
34585;SDS011;20816;50.950;11.108;2022-07-01T08:03:52;5.30;;;4.07;;
34585;SDS011;20816;50.950;11.108;2022-07-01T08:06:19;4.80;;;3.83;;
34585;SDS011;20816;50.950;11.108;2022-07-01T08:08:46;4.13;;;3.08;;
34585;SDS011;20816;50.950;11.108;2022-07-01T08:11:12;5.00;;;3.60;;
34585;SDS011;20816;50.950;11.108;2022-07-01T08:13:39;3.80;;;3.20;;
34585;SDS011;20816;50.950;11.108;2022-07-01T08:16:07;4.15;;;3.55;;
34585;SDS011;20816;50.950;11.108;2022-07-01T08:18:35;4.97;;;3.38;;
34585;SDS011;20816;50.950;11.108;2022-07-01T08:21:02;6.07;;;3.72;;
34585;SDS011;20816;50.950;11.108;2022-07-01T08:23:28;5.05;;;3.85;;
34585;SDS011;20816;50.950;11.108;2022-07-01T08:25:55;5.60;;;3.33;;
34585;SDS011;20816;50.950;11.108;2022-07-01T08:28:22;5.85;;;3.42;;
34585;SDS011;20816;50.950;11.108;2022-07-01T08:30:49;4.90;;;3.33;;
34585;SDS011;20816;50.950;11.108;2022-07-01T08:33:15;4.18;;;2.65;;
34585;SDS011;20816;50.950;11.108;2022-07-01T08:35:42;4.68;;;2.63;;
34585;SDS011;20816;50.950;11.108;2022-07-01T08:38:09;3.78;;;3.05;;
34585;SDS011;20816;50.950;11.108;2022-07-01T08:40:35;3.10;;;1.90;;
34585;SDS011;20816;50.950;11.108;2022-07-01T08:43:03;3.08;;;2.35;;
34585;SDS011;20816;50.950;11.108;2022-07-01T08:45:32;3.33;;;2.80;;
34585;SDS011;20816;50.950;11.108;2022-07-01T08:48:03;5.85;;;2.85;;
34585;SDS011;20816;50.950;11.108;2022-07-01T08:50:31;3.90;;;2.70;;
34585;SDS011;20816;50.950;11.108;2022-07-01T08:53:02;4.30;;;3.15;;
34585;SDS011;20816;50.950;11.108;2022-07-01T08:55:29;4.50;;;2.70;;
34585;SDS011;20816;50.950;11.108;2022-07-01T08:57:57;3.67;;;2.90;;
34585;SDS011;20816;50.950;11.108;2022-07-01T09:00:30;5.85;;;3.20;;
34585;SDS011;20816;50.950;11.108;2022-07-01T09:02:59;5.32;;;3.25;;
34585;SDS011;20816;50.950;11.108;2022-07-01T09:05:27;4.22;;;3.08;;
34585;SDS011;20816;50.950;11.108;2022-07-01T09:07:56;3.45;;;2.83;;
34585;SDS011;20816;50.950;11.108;2022-07-01T09:10:24;4.65;;;2.70;;
34585;SDS011;20816;50.950;11.108;2022-07-01T09:12:51;4.13;;;3.03;;
34585;SDS011;20816;50.950;11.108;2022-07-01T09:17:53;5.13;;;3.83;;
34585;SDS011;20816;50.950;11.108;2022-07-01T09:20:31;4.13;;;3.13;;
34585;SDS011;20816;50.950;11.108;2022-07-01T09:23:00;4.80;;;3.47;;
34585;SDS011;20816;50.950;11.108;2022-07-01T09:25:41;5.18;;;3.58;;
34585;SDS011;20816;50.950;11.108;2022-07-01T09:28:24;5.28;;;3.38;;
34585;SDS011;20816;50.950;11.108;2022-07-01T09:30:53;4.82;;;3.05;;
34585;SDS011;20816;50.950;11.108;2022-07-01T09:33:21;4.32;;;3.15;;
34585;SDS011;20816;50.950;11.108;2022-07-01T09:35:50;5.45;;;3.20;;
34585;SDS011;20816;50.950;11.108;2022-07-01T09:38:20;4.55;;;2.78;;
34585;SDS011;20816;50.950;11.108;2022-07-01T09:40:59;4.50;;;3.25;;
34585;SDS011;20816;50.950;11.108;2022-07-01T09:43:29;4.30;;;3.53;;
34585;SDS011;20816;50.950;11.108;2022-07-01T09:48:25;4.43;;;3.08;;
34585;SDS011;20816;50.950;11.108;2022-07-01T09:51:08;4.70;;;2.97;;
34585;SDS011;20816;50.950;11.108;2022-07-01T09:53:41;3.92;;;2.95;;
34585;SDS011;20816;50.950;11.108;2022-07-01T09:56:09;4.85;;;2.63;;
34585;SDS011;20816;50.950;11.108;2022-07-01T09:58:35;3.78;;;3.03;;
34585;SDS011;20816;50.950;11.108;2022-07-01T10:01:05;4.03;;;2.72;;
34585;SDS011;20816;50.950;11.108;2022-07-01T10:03:34;4.25;;;3.08;;
34585;SDS011;20816;50.950;11.108;2022-07-01T10:08:49;4.18;;;3.00;;
34585;SDS011;20816;50.950;11.108;2022-07-01T10:14:09;5.78;;;3.40;;
34585;SDS011;20816;50.950;11.108;2022-07-01T10:16:39;4.43;;;3.22;;
34585;SDS011;20816;50.950;11.108;2022-07-01T10:21:53;5.10;;;3.38;;
34585;SDS011;20816;50.950;11.108;2022-07-01T10:24:23;4.82;;;3.42;;
34585;SDS011;20816;50.950;11.108;2022-07-01T10:26:52;5.53;;;3.58;;
34585;SDS011;20816;50.950;11.108;2022-07-01T10:29:26;4.80;;;3.33;;
34585;SDS011;20816;50.950;11.108;2022-07-01T10:32:02;4.22;;;3.00;;
34585;SDS011;20816;50.950;11.108;2022-07-01T10:34:38;5.43;;;3.35;;
34585;SDS011;20816;50.950;11.108;2022-07-01T10:37:08;4.93;;;3.10;;
34585;SDS011;20816;50.950;11.108;2022-07-01T10:42:33;7.18;;;4.53;;
34585;SDS011;20816;50.950;11.108;2022-07-01T10:47:35;6.25;;;4.55;;
34585;SDS011;20816;50.950;11.108;2022-07-01T10:50:10;4.88;;;3.38;;
34585;SDS011;20816;50.950;11.108;2022-07-01T10:52:44;4.00;;;2.92;;
34585;SDS011;20816;50.950;11.108;2022-07-01T10:55:35;5.03;;;2.60;;
34585;SDS011;20816;50.950;11.108;2022-07-01T10:58:03;4.20;;;2.65;;
34585;SDS011;20816;50.950;11.108;2022-07-01T11:00:31;2.65;;;1.92;;
34585;SDS011;20816;50.950;11.108;2022-07-01T11:03:09;4.13;;;2.08;;
34585;SDS011;20816;50.950;11.108;2022-07-01T11:05:38;2.63;;;1.90;;
34585;SDS011;20816;50.950;11.108;2022-07-01T11:08:05;1.75;;;1.63;;
34585;SDS011;20816;50.950;11.108;2022-07-01T11:10:36;1.15;;;1.00;;
34585;SDS011;20816;50.950;11.108;2022-07-01T11:13:04;0.98;;;0.93;;
34585;SDS011;20816;50.950;11.108;2022-07-01T11:15:30;2.40;;;1.10;;
34585;SDS011;20816;50.950;11.108;2022-07-01T11:17:58;1.90;;;1.30;;
34585;SDS011;20816;50.950;11.108;2022-07-01T11:20:26;1.50;;;1.33;;
34585;SDS011;20816;50.950;11.108;2022-07-01T11:22:53;2.50;;;1.80;;
34585;SDS011;20816;50.950;11.108;2022-07-01T11:25:22;2.20;;;1.90;;
34585;SDS011;20816;50.950;11.108;2022-07-01T11:27:50;3.53;;;1.57;;
34585;SDS011;20816;50.950;11.108;2022-07-01T11:30:19;2.67;;;2.10;;
34585;SDS011;20816;50.950;11.108;2022-07-01T11:32:51;3.13;;;2.25;;
34585;SDS011;20816;50.950;11.108;2022-07-01T11:35:29;2.38;;;1.85;;
34585;SDS011;20816;50.950;11.108;2022-07-01T11:38:19;4.07;;;2.20;;
34585;SDS011;20816;50.950;11.108;2022-07-01T11:41:10;5.15;;;1.98;;
34585;SDS011;20816;50.950;11.108;2022-07-01T11:43:44;3.35;;;2.40;;
34585;SDS011;20816;50.950;11.108;2022-07-01T11:46:11;5.55;;;2.00;;
34585;SDS011;20816;50.950;11.108;2022-07-01T11:48:42;3.47;;;2.03;;
34585;SDS011;20816;50.950;11.108;2022-07-01T11:51:12;2.22;;;1.98;;
34585;SDS011;20816;50.950;11.108;2022-07-01T11:53:42;3.17;;;2.10;;
34585;SDS011;20816;50.950;11.108;2022-07-01T11:56:10;2.70;;;2.00;;
34585;SDS011;20816;50.950;11.108;2022-07-01T11:58:41;4.30;;;2.67;;
34585;SDS011;20816;50.950;11.108;2022-07-01T12:01:08;2.83;;;2.10;;
34585;SDS011;20816;50.950;11.108;2022-07-01T12:03:35;5.03;;;2.83;;
34585;SDS011;20816;50.950;11.108;2022-07-01T12:06:04;3.45;;;2.30;;
34585;SDS011;20816;50.950;11.108;2022-07-01T12:08:31;3.83;;;2.22;;
34585;SDS011;20816;50.950;11.108;2022-07-01T12:10:58;2.95;;;1.75;;
34585;SDS011;20816;50.950;11.108;2022-07-01T12:13:26;3.00;;;2.22;;
34585;SDS011;20816;50.950;11.108;2022-07-01T12:15:53;3.05;;;2.42;;
34585;SDS011;20816;50.950;11.108;2022-07-01T12:18:20;3.97;;;2.33;;
34585;SDS011;20816;50.950;11.108;2022-07-01T12:20:52;4.05;;;2.70;;
34585;SDS011;20816;50.950;11.108;2022-07-01T12:23:20;3.20;;;2.42;;
34585;SDS011;20816;50.950;11.108;2022-07-01T12:25:47;3.58;;;2.75;;
34585;SDS011;20816;50.950;11.108;2022-07-01T12:28:28;3.72;;;2.40;;
34585;SDS011;20816;50.950;11.108;2022-07-01T12:31:01;3.20;;;2.40;;
34585;SDS011;20816;50.950;11.108;2022-07-01T12:33:29;4.15;;;2.85;;
34585;SDS011;20816;50.950;11.108;2022-07-01T12:35:56;3.13;;;2.03;;
34585;SDS011;20816;50.950;11.108;2022-07-01T12:38:23;4.22;;;2.78;;
34585;SDS011;20816;50.950;11.108;2022-07-01T12:40:49;3.38;;;2.83;;
34585;SDS011;20816;50.950;11.108;2022-07-01T12:43:23;3.55;;;2.40;;
34585;SDS011;20816;50.950;11.108;2022-07-01T12:45:52;3.78;;;3.00;;
34585;SDS011;20816;50.950;11.108;2022-07-01T12:48:19;4.60;;;3.05;;
34585;SDS011;20816;50.950;11.108;2022-07-01T12:50:45;5.80;;;2.88;;
34585;SDS011;20816;50.950;11.108;2022-07-01T12:53:19;4.65;;;2.88;;
34585;SDS011;20816;50.950;11.108;2022-07-01T12:55:48;3.67;;;2.45;;
34585;SDS011;20816;50.950;11.108;2022-07-01T12:58:21;2.90;;;2.38;;
34585;SDS011;20816;50.950;11.108;2022-07-01T13:00:51;4.25;;;3.08;;
34585;SDS011;20816;50.950;11.108;2022-07-01T13:03:19;4.07;;;3.25;;
34585;SDS011;20816;50.950;11.108;2022-07-01T13:05:48;4.47;;;3.00;;
34585;SDS011;20816;50.950;11.108;2022-07-01T13:08:15;3.80;;;2.90;;
34585;SDS011;20816;50.950;11.108;2022-07-01T13:10:42;3.22;;;2.70;;
34585;SDS011;20816;50.950;11.108;2022-07-01T13:13:09;5.85;;;3.72;;
34585;SDS011;20816;50.950;11.108;2022-07-01T13:15:36;3.78;;;2.92;;
34585;SDS011;20816;50.950;11.108;2022-07-01T13:18:03;3.55;;;2.78;;
34585;SDS011;20816;50.950;11.108;2022-07-01T13:20:31;3.30;;;2.38;;
34585;SDS011;20816;50.950;11.108;2022-07-01T13:22:58;4.50;;;3.00;;
34585;SDS011;20816;50.950;11.108;2022-07-01T13:25:25;4.40;;;3.22;;
34585;SDS011;20816;50.950;11.108;2022-07-01T13:27:51;5.30;;;3.15;;
34585;SDS011;20816;50.950;11.108;2022-07-01T13:30:18;4.70;;;3.50;;
34585;SDS011;20816;50.950;11.108;2022-07-01T13:32:45;3.70;;;2.90;;
34585;SDS011;20816;50.950;11.108;2022-07-01T13:35:12;5.75;;;3.38;;
34585;SDS011;20816;50.950;11.108;2022-07-01T13:37:41;4.85;;;3.75;;
34585;SDS011;20816;50.950;11.108;2022-07-01T13:40:08;6.13;;;3.55;;
34585;SDS011;20816;50.950;11.108;2022-07-01T13:42:36;5.20;;;3.72;;
34585;SDS011;20816;50.950;11.108;2022-07-01T13:45:03;5.00;;;3.67;;
34585;SDS011;20816;50.950;11.108;2022-07-01T13:47:31;5.35;;;3.55;;
34585;SDS011;20816;50.950;11.108;2022-07-01T13:49:57;4.82;;;3.30;;
34585;SDS011;20816;50.950;11.108;2022-07-01T13:52:24;5.50;;;3.95;;
34585;SDS011;20816;50.950;11.108;2022-07-01T13:54:55;5.22;;;3.92;;
34585;SDS011;20816;50.950;11.108;2022-07-01T13:57:22;5.57;;;3.75;;
34585;SDS011;20816;50.950;11.108;2022-07-01T13:59:49;5.82;;;3.42;;
34585;SDS011;20816;50.950;11.108;2022-07-01T14:02:16;5.88;;;3.28;;
34585;SDS011;20816;50.950;11.108;2022-07-01T14:04:45;5.78;;;3.42;;
34585;SDS011;20816;50.950;11.108;2022-07-01T14:07:13;3.65;;;2.72;;
34585;SDS011;20816;50.950;11.108;2022-07-01T14:09:40;4.70;;;3.53;;
34585;SDS011;20816;50.950;11.108;2022-07-01T14:12:08;3.17;;;2.60;;
34585;SDS011;20816;50.950;11.108;2022-07-01T14:14:41;3.53;;;2.97;;
34585;SDS011;20816;50.950;11.108;2022-07-01T14:17:09;3.50;;;3.10;;
34585;SDS011;20816;50.950;11.108;2022-07-01T14:19:36;5.13;;;3.13;;
34585;SDS011;20816;50.950;11.108;2022-07-01T14:22:03;3.22;;;2.80;;
34585;SDS011;20816;50.950;11.108;2022-07-01T14:24:30;3.72;;;2.60;;
34585;SDS011;20816;50.950;11.108;2022-07-01T14:26:56;3.60;;;3.17;;
34585;SDS011;20816;50.950;11.108;2022-07-01T14:29:23;5.22;;;3.00;;
34585;SDS011;20816;50.950;11.108;2022-07-01T14:31:50;3.25;;;2.72;;
34585;SDS011;20816;50.950;11.108;2022-07-01T14:34:16;3.97;;;2.97;;
34585;SDS011;20816;50.950;11.108;2022-07-01T14:36:43;3.33;;;3.03;;
34585;SDS011;20816;50.950;11.108;2022-07-01T14:39:10;3.97;;;2.83;;
34585;SDS011;20816;50.950;11.108;2022-07-01T14:41:37;4.28;;;3.47;;
34585;SDS011;20816;50.950;11.108;2022-07-01T14:44:04;4.25;;;3.15;;
34585;SDS011;20816;50.950;11.108;2022-07-01T14:46:30;9.15;;;2.78;;
34585;SDS011;20816;50.950;11.108;2022-07-01T14:48:57;3.65;;;2.80;;
34585;SDS011;20816;50.950;11.108;2022-07-01T14:51:24;3.05;;;2.47;;
34585;SDS011;20816;50.950;11.108;2022-07-01T14:53:51;5.13;;;2.55;;
34585;SDS011;20816;50.950;11.108;2022-07-01T14:56:22;4.45;;;2.08;;
34585;SDS011;20816;50.950;11.108;2022-07-01T14:58:49;3.83;;;2.53;;